createdAt,value
2022-12-29T00:00:13.573Z,32.55
2022-12-29T00:03:02.477Z,36.33
2022-12-29T00:05:30.201Z,31.90
2022-12-29T00:07:58.242Z,38.08
2022-12-29T00:10:25.855Z,39.38
2022-12-29T00:13:12.349Z,36.55
2022-12-29T00:15:40.229Z,31.60
2022-12-29T00:18:09.119Z,29.65
2022-12-29T00:20:57.203Z,34.17
2022-12-29T00:23:44.080Z,36.37
2022-12-29T00:26:35.246Z,31.75
2022-12-29T00:29:22.208Z,35.65
2022-12-29T00:32:08.549Z,34.00
2022-12-29T00:34:55.422Z,32.08
2022-12-29T00:37:43.093Z,34.75
2022-12-29T00:40:30.086Z,37.45
2022-12-29T00:43:16.203Z,31.92
2022-12-29T00:45:44.910Z,27.08
2022-12-29T00:48:12.472Z,31.75
2022-12-29T00:50:40.376Z,33.55
2022-12-29T00:53:07.906Z,28.65
2022-12-29T00:55:39.476Z,31.92
2022-12-29T00:58:07.127Z,29.50
2022-12-29T01:00:35.326Z,30.17
2022-12-29T01:03:03.062Z,28.30
2022-12-29T01:05:31.321Z,36.97
2022-12-29T01:07:59.197Z,31.75
2022-12-29T01:10:27.148Z,32.15
2022-12-29T01:12:54.691Z,29.52
2022-12-29T01:15:23.059Z,33.65
2022-12-29T01:17:50.561Z,32.83
2022-12-29T01:20:20.070Z,31.58
2022-12-29T01:22:48.337Z,33.13
2022-12-29T01:25:16.372Z,41.88
2022-12-29T01:30:14.055Z,39.03
2022-12-29T01:32:41.939Z,34.40
2022-12-29T01:35:09.905Z,35.75
2022-12-29T01:37:37.575Z,40.03
2022-12-29T01:40:06.294Z,38.35
2022-12-29T01:42:34.905Z,37.35
2022-12-29T01:45:18.500Z,35.80
2022-12-29T01:48:01.666Z,33.45
2022-12-29T01:50:42.448Z,38.95
2022-12-29T01:53:29.381Z,31.15
2022-12-29T01:56:04.674Z,29.08
2022-12-29T01:58:39.054Z,26.95
2022-12-29T02:01:07.962Z,32.45
2022-12-29T02:03:37.587Z,38.38
2022-12-29T02:06:17.198Z,47.78
2022-12-29T02:08:50.738Z,46.55
2022-12-29T02:11:19.363Z,39.50
2022-12-29T02:13:47.218Z,48.72
2022-12-29T02:16:24.064Z,49.88
2022-12-29T02:20:00.865Z,52.75
2022-12-29T02:23:14.766Z,49.13
2022-12-29T02:26:13.484Z,49.65
2022-12-29T02:29:24.823Z,43.63
2022-12-29T02:32:31.444Z,47.22
2022-12-29T02:35:41.935Z,47.45
2022-12-29T02:38:44.284Z,43.78
2022-12-29T02:41:26.140Z,33.75
2022-12-29T02:44:47.516Z,48.13
2022-12-29T02:47:41.849Z,39.70
2022-12-29T02:50:35.040Z,34.70
2022-12-29T02:55:56.770Z,41.13
2022-12-29T02:58:24.988Z,33.80
2022-12-29T03:01:23.723Z,40.80
2022-12-29T03:04:11.558Z,33.63
2022-12-29T03:07:38.995Z,36.10
2022-12-29T03:10:37.858Z,38.03
2022-12-29T03:14:04.368Z,35.53
2022-12-29T03:16:48.747Z,42.70
2022-12-29T03:19:36.169Z,47.55
2022-12-29T03:22:28.734Z,37.92
2022-12-29T03:25:11.317Z,47.97
2022-12-29T03:27:47.138Z,48.50
2022-12-29T03:30:15.595Z,54.03
2022-12-29T03:32:56.692Z,49.90
2022-12-29T03:35:32.710Z,43.53
2022-12-29T03:38:15.193Z,48.80
2022-12-29T03:40:48.640Z,36.60
2022-12-29T03:43:17.626Z,37.95
2022-12-29T03:45:47.254Z,36.03
2022-12-29T03:48:15.809Z,30.77
2022-12-29T03:53:12.730Z,34.25
2022-12-29T03:55:40.643Z,36.88
2022-12-29T03:58:09.206Z,40.35
2022-12-29T04:00:52.911Z,42.90
2022-12-29T04:03:20.988Z,39.90
2022-12-29T04:05:48.752Z,35.05
2022-12-29T04:08:16.798Z,32.30
2022-12-29T04:10:44.917Z,28.88
2022-12-29T04:13:14.765Z,25.05
2022-12-29T04:15:46.220Z,35.17
2022-12-29T04:18:14.791Z,31.85
2022-12-29T04:21:00.756Z,20.98
2022-12-29T04:23:32.090Z,30.60
2022-12-29T04:26:00.234Z,29.45
2022-12-29T04:28:29.716Z,25.88
2022-12-29T04:31:17.381Z,31.42
2022-12-29T04:33:47.544Z,26.63
2022-12-29T04:36:15.469Z,28.27
2022-12-29T04:38:44.832Z,29.25
2022-12-29T04:41:12.437Z,27.58
2022-12-29T04:43:41.568Z,29.40
2022-12-29T04:46:15.340Z,30.83
2022-12-29T04:49:09.545Z,26.67
2022-12-29T04:51:54.714Z,26.58
2022-12-29T04:54:23.017Z,28.08
2022-12-29T04:57:10.915Z,22.20
2022-12-29T04:59:40.847Z,27.40
2022-12-29T05:02:10.132Z,29.08
2022-12-29T05:04:38.712Z,26.33
2022-12-29T05:07:06.497Z,24.75
2022-12-29T05:09:34.732Z,34.92
2022-12-29T05:12:02.948Z,35.35
2022-12-29T05:14:32.787Z,29.63
2022-12-29T05:17:01.172Z,29.85
2022-12-29T05:22:40.777Z,31.73
2022-12-29T05:25:11.084Z,29.63
2022-12-29T05:27:54.987Z,21.02
2022-12-29T05:30:52.417Z,28.13
2022-12-29T05:33:20.747Z,27.43
2022-12-29T05:36:09.703Z,20.35
2022-12-29T05:38:40.568Z,26.42
2022-12-29T05:41:08.582Z,24.88
2022-12-29T05:44:02.669Z,26.35
2022-12-29T05:46:34.148Z,24.65
2022-12-29T05:49:21.191Z,29.85
2022-12-29T05:51:56.722Z,30.75
2022-12-29T05:54:24.300Z,28.38
2022-12-29T05:56:53.429Z,26.90
2022-12-29T05:59:21.826Z,30.00
2022-12-29T06:01:50.554Z,25.45
2022-12-29T06:04:18.424Z,26.65
2022-12-29T06:06:46.492Z,31.45
2022-12-29T06:09:22.923Z,30.40
2022-12-29T06:11:51.525Z,29.67
2022-12-29T06:14:20.102Z,29.87
2022-12-29T06:16:49.245Z,27.83
2022-12-29T06:19:18.438Z,25.15
2022-12-29T06:21:46.649Z,26.35
2022-12-29T06:24:14.405Z,23.33
2022-12-29T06:26:43.024Z,24.50
2022-12-29T06:29:10.947Z,23.67
2022-12-29T06:31:39.327Z,31.00
2022-12-29T06:34:08.611Z,27.30
2022-12-29T06:36:38.080Z,27.55
2022-12-29T06:39:06.965Z,22.08
2022-12-29T06:41:36.122Z,20.92
2022-12-29T06:44:29.862Z,33.20
2022-12-29T06:47:07.362Z,38.72
2022-12-29T06:49:34.905Z,48.08
2022-12-29T06:52:10.620Z,61.65
2022-12-29T06:54:40.309Z,52.03
2022-12-29T06:57:08.409Z,55.97
2022-12-29T06:59:35.926Z,47.95
2022-12-29T07:02:04.097Z,45.83
2022-12-29T07:04:31.774Z,47.03
2022-12-29T07:06:59.644Z,57.65
2022-12-29T07:09:27.141Z,56.08
2022-12-29T07:11:54.975Z,49.45
2022-12-29T07:14:22.555Z,48.33
2022-12-29T07:16:50.611Z,46.90
2022-12-29T07:19:18.306Z,43.75
2022-12-29T07:21:46.129Z,62.97
2022-12-29T07:24:13.657Z,62.47
2022-12-29T07:26:42.847Z,38.70
2022-12-29T07:29:10.389Z,36.60
2022-12-29T07:31:38.330Z,46.58
2022-12-29T07:34:05.923Z,41.22
2022-12-29T07:36:34.808Z,42.05
2022-12-29T07:39:03.779Z,45.10
2022-12-29T07:41:32.055Z,60.78
2022-12-29T07:44:02.694Z,64.50
2022-12-29T07:46:53.900Z,63.95
2022-12-29T07:49:24.973Z,55.77
2022-12-29T07:51:52.909Z,56.92
2022-12-29T07:54:20.620Z,58.08
2022-12-29T07:56:48.423Z,64.13
2022-12-29T07:59:16.078Z,50.92
2022-12-29T08:01:44.136Z,46.72
2022-12-29T08:04:11.858Z,49.17
2022-12-29T08:06:40.449Z,47.40
2022-12-29T08:09:16.457Z,56.90
2022-12-29T08:11:47.100Z,50.50
2022-12-29T08:14:14.585Z,44.90
2022-12-29T08:16:42.403Z,46.70
2022-12-29T08:19:12.924Z,45.42
2022-12-29T08:21:41.237Z,41.65
2022-12-29T08:24:10.453Z,36.53
2022-12-29T08:26:38.339Z,47.80
2022-12-29T08:29:05.819Z,26.58
2022-12-29T08:31:33.791Z,36.63
2022-12-29T08:34:03.172Z,36.40
2022-12-29T08:36:31.861Z,33.60
2022-12-29T08:38:59.320Z,37.38
2022-12-29T08:41:27.391Z,38.97
2022-12-29T08:43:54.905Z,38.45
2022-12-29T08:46:22.919Z,34.03
2022-12-29T08:48:50.441Z,36.10
2022-12-29T08:51:21.453Z,36.97
2022-12-29T08:53:51.663Z,53.08
2022-12-29T08:56:20.761Z,53.05
2022-12-29T08:58:53.935Z,42.55
2022-12-29T09:01:23.910Z,37.85
2022-12-29T09:06:40.724Z,42.70
2022-12-29T09:09:08.718Z,45.90
2022-12-29T09:11:36.767Z,46.35
2022-12-29T09:14:05.205Z,48.42
2022-12-29T09:16:33.339Z,42.22
2022-12-29T09:19:01.927Z,53.95
2022-12-29T09:21:29.889Z,48.45
2022-12-29T09:23:57.866Z,49.67
2022-12-29T09:26:25.896Z,48.25
2022-12-29T09:28:53.387Z,47.40
2022-12-29T09:31:21.344Z,43.47
2022-12-29T09:33:48.904Z,45.25
2022-12-29T09:36:16.771Z,44.92
2022-12-29T09:38:44.297Z,51.97
2022-12-29T09:41:42.423Z,49.60
2022-12-29T09:44:22.914Z,58.30
2022-12-29T09:46:54.970Z,55.88
2022-12-29T09:49:27.784Z,56.95
2022-12-29T09:52:03.566Z,54.10
2022-12-29T09:55:02.890Z,55.15
2022-12-29T09:57:49.671Z,57.55
2022-12-29T10:00:24.263Z,64.03
2022-12-29T10:02:59.922Z,68.95
2022-12-29T10:05:54.388Z,56.88
2022-12-29T10:08:59.405Z,60.90
2022-12-29T10:12:03.730Z,67.35
2022-12-29T10:15:02.976Z,61.45
2022-12-29T10:17:49.634Z,59.97
2022-12-29T10:21:06.558Z,56.22
2022-12-29T10:23:43.620Z,58.33
2022-12-29T10:26:21.168Z,56.92
2022-12-29T10:28:55.658Z,53.83
2022-12-29T10:31:45.640Z,53.58
2022-12-29T10:34:25.425Z,48.28
2022-12-29T10:37:13.992Z,41.25
2022-12-29T10:39:52.204Z,44.22
2022-12-29T10:42:30.247Z,42.10
2022-12-29T10:45:00.331Z,50.70
2022-12-29T10:47:35.075Z,57.55
2022-12-29T10:50:04.121Z,42.95
2022-12-29T10:52:33.989Z,48.13
2022-12-29T10:55:02.376Z,45.38
2022-12-29T10:57:37.564Z,49.53
2022-12-29T11:00:23.491Z,41.60
2022-12-29T11:03:16.665Z,41.70
2022-12-29T11:06:16.307Z,48.67
2022-12-29T11:08:59.533Z,43.75
2022-12-29T11:11:36.246Z,39.42
2022-12-29T11:14:20.628Z,47.25
2022-12-29T11:16:59.933Z,44.20
2022-12-29T11:19:40.475Z,38.15
2022-12-29T11:22:29.848Z,32.33
2022-12-29T11:27:55.490Z,43.78
2022-12-29T11:30:32.491Z,34.45
2022-12-29T11:33:05.318Z,37.78
2022-12-29T11:35:42.070Z,42.80
2022-12-29T11:38:32.880Z,43.35
2022-12-29T11:41:00.763Z,46.63
2022-12-29T11:43:42.732Z,44.38
2022-12-29T11:46:29.173Z,23.20
2022-12-29T11:49:00.678Z,15.32
2022-12-29T11:51:50.596Z,22.17
2022-12-29T11:54:28.579Z,13.95
2022-12-29T11:56:56.702Z,7.88
2022-12-29T11:59:35.302Z,3.42
2022-12-29T12:02:52.392Z,2.90
2022-12-29T12:05:28.160Z,4.95
2022-12-29T12:08:18.961Z,4.68
2022-12-29T12:11:03.263Z,5.53
2022-12-29T12:13:59.238Z,1.77
2022-12-29T12:16:49.542Z,1.80
2022-12-29T12:19:34.099Z,3.45
2022-12-29T12:22:41.536Z,2.90
2022-12-29T12:25:22.284Z,4.00
2022-12-29T12:28:06.572Z,3.03
2022-12-29T12:30:59.201Z,2.53
2022-12-29T12:33:42.822Z,1.45
2022-12-29T12:37:00.006Z,3.50
2022-12-29T12:39:52.664Z,2.13
2022-12-29T12:42:44.507Z,2.17
2022-12-29T12:45:32.839Z,8.30
2022-12-29T12:48:31.647Z,5.40
2022-12-29T12:51:30.533Z,13.30
2022-12-29T12:54:55.327Z,31.23
2022-12-29T12:57:47.636Z,35.22
2022-12-29T13:00:19.797Z,33.50
2022-12-29T13:03:13.732Z,28.52
2022-12-29T13:06:05.849Z,24.73
2022-12-29T13:09:02.291Z,28.02
2022-12-29T13:11:56.606Z,21.98
2022-12-29T13:14:48.172Z,53.28
2022-12-29T13:17:22.068Z,30.73
2022-12-29T13:19:52.939Z,25.98
2022-12-29T13:22:52.237Z,26.95
2022-12-29T13:25:40.542Z,48.22
2022-12-29T13:28:34.877Z,36.03
2022-12-29T13:31:16.747Z,35.38
2022-12-29T13:34:11.740Z,38.85
2022-12-29T13:36:53.379Z,47.65
2022-12-29T13:39:38.238Z,61.78
2022-12-29T13:42:06.518Z,112.93
2022-12-29T13:44:38.523Z,100.05
2022-12-29T13:47:34.474Z,78.97
2022-12-29T13:50:13.547Z,54.72
2022-12-29T13:53:05.186Z,49.75
2022-12-29T13:55:56.492Z,46.72
2022-12-29T13:58:57.152Z,42.00
2022-12-29T14:01:43.529Z,47.30
2022-12-29T14:04:24.324Z,55.65
2022-12-29T14:07:18.231Z,73.13
2022-12-29T14:09:53.693Z,81.03
2022-12-29T14:12:40.904Z,81.13
2022-12-29T14:15:14.544Z,87.40
2022-12-29T14:18:00.344Z,106.47
2022-12-29T14:20:27.885Z,120.32
2022-12-29T14:23:12.020Z,108.75
2022-12-29T14:25:57.375Z,118.35
2022-12-29T14:28:31.524Z,126.88
2022-12-29T14:31:02.785Z,149.93
2022-12-29T14:33:34.732Z,138.93
2022-12-29T14:36:34.394Z,126.35
2022-12-29T14:39:02.732Z,118.55
2022-12-29T14:41:39.530Z,97.38
2022-12-29T14:44:21.783Z,95.55
2022-12-29T14:46:56.167Z,78.50
2022-12-29T14:49:42.934Z,71.50
2022-12-29T14:52:18.392Z,83.13
2022-12-29T14:54:55.950Z,80.57
2022-12-29T14:57:37.431Z,78.50
2022-12-29T15:00:15.051Z,79.97
2022-12-29T15:02:55.694Z,76.80
2022-12-29T15:05:47.494Z,83.80
2022-12-29T15:08:22.672Z,74.93
2022-12-29T15:10:59.355Z,76.82
2022-12-29T15:13:38.381Z,76.07
2022-12-29T15:16:30.017Z,78.55
2022-12-29T15:18:58.622Z,91.68
2022-12-29T15:21:36.569Z,90.53
2022-12-29T15:24:05.321Z,83.75
2022-12-29T15:26:43.223Z,79.72
2022-12-29T15:29:36.682Z,71.45
2022-12-29T15:32:17.124Z,70.72
2022-12-29T15:34:47.850Z,64.95
2022-12-29T15:37:36.321Z,62.03
2022-12-29T15:40:04.959Z,57.75
2022-12-29T15:43:06.562Z,59.53
2022-12-29T15:45:36.838Z,58.63
2022-12-29T15:48:08.468Z,55.20
2022-12-29T15:50:38.383Z,62.67
2022-12-29T15:53:13.042Z,58.20
2022-12-29T15:55:42.772Z,56.10
2022-12-29T15:58:29.508Z,59.13
2022-12-29T16:01:00.679Z,64.88
2022-12-29T16:03:38.537Z,71.28
2022-12-29T16:06:34.757Z,64.75
2022-12-29T16:09:06.195Z,74.85
2022-12-29T16:11:41.694Z,76.18
2022-12-29T16:14:31.275Z,78.32
2022-12-29T16:17:02.995Z,94.87
2022-12-29T16:19:39.949Z,94.70
2022-12-29T16:22:47.731Z,95.00
2022-12-29T16:25:30.132Z,96.32
2022-12-29T16:28:00.855Z,101.43
2022-12-29T16:30:35.817Z,83.88
2022-12-29T16:33:06.692Z,83.50
2022-12-29T16:36:02.404Z,74.80
2022-12-29T16:38:35.207Z,78.05
2022-12-29T16:41:04.099Z,79.32
2022-12-29T16:43:42.787Z,74.32
2022-12-29T16:46:30.264Z,65.03
2022-12-29T16:48:58.790Z,57.22
2022-12-29T16:51:36.892Z,54.00
2022-12-29T16:54:05.583Z,54.40
2022-12-29T16:56:37.398Z,51.63
2022-12-29T16:59:30.396Z,51.03
2022-12-29T17:02:01.035Z,44.33
2022-12-29T17:04:30.988Z,49.42
2022-12-29T17:06:58.848Z,46.75
2022-12-29T17:09:29.412Z,46.55
2022-12-29T17:12:10.116Z,52.25
2022-12-29T17:14:53.800Z,48.42
2022-12-29T17:17:53.817Z,38.25
2022-12-29T17:20:26.858Z,30.70
2022-12-29T17:22:55.750Z,23.25
2022-12-29T17:25:34.959Z,20.65
2022-12-29T17:28:28.255Z,23.63
2022-12-29T17:31:02.546Z,21.70
2022-12-29T17:33:40.173Z,22.48
2022-12-29T17:36:08.084Z,17.92
2022-12-29T17:38:37.659Z,15.05
2022-12-29T17:41:09.172Z,18.33
2022-12-29T17:43:37.366Z,22.33
2022-12-29T17:46:07.866Z,19.67
2022-12-29T17:48:37.167Z,19.13
2022-12-29T17:51:04.916Z,21.13
2022-12-29T17:53:32.737Z,16.70
2022-12-29T17:56:00.287Z,24.75
2022-12-29T17:58:31.764Z,16.67
2022-12-29T18:01:02.567Z,21.23
2022-12-29T18:03:41.364Z,19.80
2022-12-29T18:06:12.252Z,17.87
2022-12-29T18:08:41.952Z,15.35
2022-12-29T18:13:54.218Z,23.65
2022-12-29T18:16:23.293Z,16.70
2022-12-29T18:18:51.053Z,19.63
2022-12-29T18:21:22.147Z,12.45
2022-12-29T18:23:50.298Z,13.73
2022-12-29T18:26:27.704Z,14.32
2022-12-29T18:28:58.020Z,11.20
2022-12-29T18:31:34.462Z,15.35
2022-12-29T18:34:11.710Z,15.32
2022-12-29T18:36:39.601Z,15.13
2022-12-29T18:39:07.028Z,23.30
2022-12-29T18:41:34.803Z,11.10
2022-12-29T18:44:02.632Z,13.85
2022-12-29T18:46:30.567Z,13.82
2022-12-29T18:48:58.222Z,12.00
2022-12-29T18:51:26.493Z,13.98
2022-12-29T18:53:54.773Z,10.80
2022-12-29T18:56:24.214Z,13.27
2022-12-29T18:58:53.546Z,8.57
2022-12-29T19:01:31.176Z,10.00
2022-12-29T19:03:59.028Z,12.63
2022-12-29T19:06:26.809Z,20.05
2022-12-29T19:08:54.409Z,15.23
2022-12-29T19:11:22.499Z,16.15
2022-12-29T19:13:50.025Z,14.23
2022-12-29T19:16:21.236Z,13.10
2022-12-29T19:19:07.420Z,12.20
2022-12-29T19:21:38.021Z,12.02
2022-12-29T19:24:06.457Z,11.77
2022-12-29T19:26:40.380Z,12.15
2022-12-29T19:29:13.798Z,10.38
2022-12-29T19:31:41.928Z,15.45
2022-12-29T19:34:13.862Z,7.82
2022-12-29T19:36:44.104Z,15.68
2022-12-29T19:39:13.638Z,12.93
2022-12-29T19:41:41.705Z,11.40
2022-12-29T19:44:09.256Z,12.50
2022-12-29T19:46:37.144Z,12.45
2022-12-29T19:49:04.852Z,15.40
2022-12-29T19:51:32.965Z,15.43
2022-12-29T19:54:00.549Z,13.10
2022-12-29T19:56:28.341Z,17.58
2022-12-29T19:58:57.501Z,16.65
2022-12-29T20:01:26.260Z,14.80
2022-12-29T20:03:53.990Z,20.73
2022-12-29T20:06:21.936Z,12.68
2022-12-29T20:08:49.609Z,13.57
2022-12-29T20:11:19.655Z,15.50
2022-12-29T20:13:48.338Z,12.98
2022-12-29T20:16:21.019Z,21.13
2022-12-29T20:18:49.343Z,16.98
2022-12-29T20:21:21.661Z,19.10
2022-12-29T20:23:54.528Z,18.08
2022-12-29T20:26:29.322Z,16.20
2022-12-29T20:28:58.768Z,18.70
2022-12-29T20:34:00.632Z,17.92
2022-12-29T20:36:32.429Z,18.52
2022-12-29T20:39:05.230Z,18.13
2022-12-29T20:41:33.656Z,15.15
2022-12-29T20:44:01.502Z,17.88
2022-12-29T20:46:35.311Z,17.02
2022-12-29T20:49:10.476Z,17.50
2022-12-29T20:52:05.226Z,16.58
2022-12-29T20:54:26.130Z,13.90
2022-12-29T20:56:54.273Z,17.30
2022-12-29T20:59:27.847Z,18.90
2022-12-29T21:01:58.275Z,23.08
2022-12-29T21:04:27.148Z,23.77
2022-12-29T21:06:55.142Z,23.27
2022-12-29T21:09:22.949Z,31.48
2022-12-29T21:11:50.774Z,41.33
2022-12-29T21:14:18.222Z,22.10
2022-12-29T21:16:47.309Z,18.52
2022-12-29T21:19:16.255Z,17.80
2022-12-29T21:21:44.039Z,12.50
2022-12-29T21:24:11.503Z,22.60
2022-12-29T21:26:40.591Z,14.50
2022-12-29T21:29:08.092Z,12.18
2022-12-29T21:31:39.148Z,10.85
2022-12-29T21:34:10.250Z,15.43
2022-12-29T21:36:43.468Z,12.68
2022-12-29T21:39:16.449Z,12.50
2022-12-29T21:41:44.320Z,15.70
2022-12-29T21:44:32.384Z,10.63
2022-12-29T21:47:08.092Z,11.65
2022-12-29T21:49:43.214Z,14.48
2022-12-29T21:52:19.348Z,12.70
2022-12-29T21:55:08.329Z,11.38
2022-12-29T21:58:39.514Z,12.10
2022-12-29T22:01:30.009Z,19.08
2022-12-29T22:04:19.592Z,17.00
2022-12-29T22:07:13.554Z,12.65
2022-12-29T22:10:06.435Z,13.13
2022-12-29T22:13:02.840Z,13.52
2022-12-29T22:15:41.309Z,20.10
2022-12-29T22:18:13.732Z,14.20
2022-12-29T22:20:44.865Z,24.98
2022-12-29T22:23:19.521Z,15.93
2022-12-29T22:25:54.247Z,13.32
2022-12-29T22:28:26.001Z,19.58
2022-12-29T22:30:59.716Z,18.63
2022-12-29T22:33:33.277Z,15.48
2022-12-29T22:36:02.914Z,9.55
2022-12-29T22:38:33.973Z,8.25
2022-12-29T22:41:04.047Z,12.20
2022-12-29T22:43:42.968Z,10.40
2022-12-29T22:46:12.231Z,18.15
2022-12-29T22:48:47.964Z,7.35
2022-12-29T22:51:16.618Z,11.57
2022-12-29T22:53:50.346Z,7.82
2022-12-29T22:56:37.133Z,8.73
2022-12-29T22:59:18.435Z,15.05
2022-12-29T23:01:46.684Z,8.70
2022-12-29T23:04:59.282Z,9.93
2022-12-29T23:07:13.281Z,9.27
2022-12-29T23:10:01.702Z,10.23
2022-12-29T23:12:36.943Z,11.32
2022-12-29T23:15:10.323Z,8.43
2022-12-29T23:17:42.448Z,9.30
2022-12-29T23:20:10.666Z,7.53
2022-12-29T23:22:38.659Z,9.30
2022-12-29T23:25:06.538Z,10.45
2022-12-29T23:27:34.602Z,8.45
2022-12-29T23:30:02.292Z,10.55
2022-12-29T23:32:30.374Z,7.70
2022-12-29T23:34:58.428Z,9.82
2022-12-29T23:37:26.501Z,7.32
2022-12-29T23:39:54.040Z,12.43
2022-12-29T23:42:22.042Z,7.32
2022-12-29T23:44:49.710Z,7.65
2022-12-29T23:47:17.980Z,11.15
2022-12-29T23:49:45.568Z,8.88
2022-12-29T23:52:13.525Z,6.47
2022-12-29T23:54:41.295Z,9.90
2022-12-29T23:57:09.452Z,7.45
2022-12-29T23:59:37.083Z,6.40
